Terminal Aerodrome Forecast
Issued by NWS

Home | Current Version | Previous Version | Text Only | Print | Product List | Glossary On
Versions: 1 2 3 4 5 6 7 8 9 10 11 12
000
FTUS46 KMFR 142300
TAFRBG
TAF
KRBG 142339Z 1500/1524 36008KT P6SM SKC
     FM150400 VRB03KT P6SM SCT250
     FM152200 35005KT P6SM SCT080 OVC250=

USA.gov is the U.S. government's official web portal to all federal, state and local government web resources and services.